Time;durP1;ratioP1;P1;durP2;ratioP2;P2;SDS_P1;SDS_P2;PMS_P1;PMS_P2;Temp;Humidity;BMP_temperature;BMP_pressure;BME280_temperature;BME280_humidity;BME280_pressure;Samples;Min_cycle;Max_cycle;Signal;HPM_P1;HPM_P2
2022/03/16 00:03:27;;;;;;;19.02;10.30;;;10.70;83.00;;;;;;10484295;28;20048;-65
2022/03/16 00:08:29;;;;;;;17.55;10.48;;;10.70;83.10;;;;;;10446574;28;20024;-67
2022/03/16 00:13:31;;;;;;;19.08;10.32;;;10.70;83.00;;;;;;10486016;28;20028;-64
2022/03/16 00:18:32;;;;;;;18.70;10.65;;;10.70;83.00;;;;;;10491680;28;20055;-63
2022/03/16 00:23:33;;;;;;;20.17;9.95;;;10.60;83.00;;;;;;10491257;28;20131;-66
2022/03/16 00:28:34;;;;;;;18.27;10.02;;;10.60;82.90;;;;;;10489732;28;20020;-66
2022/03/16 00:33:35;;;;;;;18.52;9.57;;;10.60;83.00;;;;;;10489956;28;20059;-66
2022/03/16 00:38:36;;;;;;;22.70;10.88;;;10.60;82.90;;;;;;10489629;28;20139;-62
2022/03/16 00:43:36;;;;;;;18.10;10.55;;;10.50;82.90;;;;;;10489721;28;20514;-63
2022/03/16 00:48:37;;;;;;;23.25;10.88;;;10.50;82.90;;;;;;10482096;28;20453;-66
2022/03/16 00:53:39;;;;;;;17.38;9.82;;;10.50;83.00;;;;;;10489072;28;20193;-65
2022/03/16 00:58:40;;;;;;;18.80;10.52;;;10.50;83.00;;;;;;10487887;28;20017;-64
2022/03/16 01:03:41;;;;;;;17.73;9.10;;;10.40;83.00;;;;;;10476707;28;20049;-62
2022/03/16 01:08:45;;;;;;;21.15;10.30;;;10.40;83.00;;;;;;10476154;28;20029;-66
2022/03/16 01:13:46;;;;;;;19.77;10.25;;;10.40;83.10;;;;;;10489918;28;20103;-66
2022/03/16 01:18:47;;;;;;;20.95;11.07;;;10.40;83.10;;;;;;10484233;28;20029;-65
2022/03/16 01:23:48;;;;;;;20.52;10.98;;;10.40;83.10;;;;;;10480908;28;20047;-65
2022/03/16 01:28:48;;;;;;;18.65;9.73;;;10.30;83.00;;;;;;10488569;28;20025;-67
2022/03/16 01:33:49;;;;;;;20.63;10.63;;;10.30;83.10;;;;;;10489553;28;20127;-63
2022/03/16 01:38:50;;;;;;;21.30;10.73;;;10.30;83.10;;;;;;10477577;28;20020;-66
2022/03/16 01:43:54;;;;;;;18.67;9.82;;;10.30;83.10;;;;;;10466456;28;20064;-65
2022/03/16 01:48:55;;;;;;;20.25;10.85;;;10.30;83.00;;;;;;10479890;28;20525;-65
2022/03/16 01:53:56;;;;;;;19.63;10.15;;;10.20;83.00;;;;;;10459573;28;20031;-66
2022/03/16 01:58:57;;;;;;;20.30;10.50;;;10.20;83.00;;;;;;10482830;28;20040;-63
2022/03/16 02:03:58;;;;;;;20.17;9.57;;;10.20;82.90;;;;;;10452171;28;20042;-64
2022/03/16 02:08:58;;;;;;;18.48;10.10;;;10.20;82.80;;;;;;10474255;28;20033;-64
2022/03/16 02:13:59;;;;;;;18.52;10.00;;;10.10;82.70;;;;;;10486470;28;20032;-64
2022/03/16 02:19:00;;;;;;;18.23;10.05;;;10.10;82.70;;;;;;10485543;28;20124;-65
2022/03/16 02:24:02;;;;;;;17.77;10.35;;;10.10;82.70;;;;;;10486027;28;20035;-65
2022/03/16 02:29:03;;;;;;;18.63;10.32;;;10.10;83.20;;;;;;10486129;28;20514;-61
2022/03/16 02:34:04;;;;;;;18.95;9.68;;;10.10;82.60;;;;;;10472897;28;20085;-66
2022/03/16 02:39:05;;;;;;;19.65;10.00;;;10.00;82.50;;;;;;10486347;28;20568;-65
2022/03/16 02:44:05;;;;;;;19.30;9.88;;;10.00;83.00;;;;;;10486375;28;20193;-66
2022/03/16 02:49:06;;;;;;;17.33;9.25;;;10.00;82.40;;;;;;10478776;28;20041;-65
2022/03/16 02:54:07;;;;;;;16.50;9.57;;;10.00;82.40;;;;;;10486276;28;20498;-61
2022/03/16 02:59:08;;;;;;;16.98;9.65;;;9.90;82.40;;;;;;10481192;28;20029;-65
2022/03/16 03:04:08;;;;;;;18.67;10.27;;;9.90;82.40;;;;;;10477388;28;20039;-64
2022/03/16 03:09:09;;;;;;;16.50;9.77;;;9.90;82.40;;;;;;10485175;28;20075;-63
2022/03/16 03:14:10;;;;;;;15.23;9.10;;;9.90;82.40;;;;;;10486799;28;20029;-66
2022/03/16 03:19:10;;;;;;;17.60;9.13;;;9.80;82.40;;;;;;10485132;28;20054;-66
2022/03/16 03:24:11;;;;;;;15.32;8.40;;;9.80;82.40;;;;;;10465266;28;20057;-64
2022/03/16 03:29:13;;;;;;;14.80;8.07;;;9.80;82.40;;;;;;10481525;28;20025;-66
2022/03/16 03:34:13;;;;;;;12.73;7.95;;;9.80;82.30;;;;;;10486074;28;20060;-64
2022/03/16 03:39:14;;;;;;;13.60;7.97;;;9.70;82.20;;;;;;10485277;28;20108;-65
2022/03/16 03:44:15;;;;;;;16.40;8.02;;;9.70;82.20;;;;;;10485093;28;20293;-66
2022/03/16 03:49:16;;;;;;;14.15;8.10;;;9.70;82.20;;;;;;10481025;28;20071;-66
2022/03/16 03:54:17;;;;;;;14.98;8.43;;;9.70;82.80;;;;;;10493084;28;20047;-66
2022/03/16 03:59:19;;;;;;;13.82;8.63;;;9.70;82.30;;;;;;10491934;28;20478;-65
2022/03/16 04:04:20;;;;;;;14.05;8.02;;;9.60;82.30;;;;;;10493246;28;20033;-64
2022/03/16 04:09:21;;;;;;;13.38;8.40;;;9.60;82.30;;;;;;10476647;28;20464;-66
2022/03/16 04:14:22;;;;;;;14.18;8.45;;;9.60;82.30;;;;;;10492227;28;20017;-65
2022/03/16 04:19:23;;;;;;;12.02;7.78;;;9.60;82.30;;;;;;10491362;28;20085;-65
2022/03/16 04:24:23;;;;;;;14.38;9.05;;;9.60;82.30;;;;;;10485364;28;20101;-66
2022/03/16 04:29:24;;;;;;;14.55;8.70;;;9.60;82.30;;;;;;10488150;28;20025;-66
2022/03/16 04:34:25;;;;;;;14.75;8.32;;;9.50;82.30;;;;;;10490600;28;20491;-67
2022/03/16 04:39:25;;;;;;;13.13;7.90;;;9.50;82.30;;;;;;10459402;28;20444;-67
2022/03/16 04:44:26;;;;;;;12.30;7.93;;;9.50;82.30;;;;;;10489613;28;20086;-65
2022/03/16 04:49:27;;;;;;;13.68;7.95;;;9.50;82.30;;;;;;10482440;28;20055;-65
2022/03/16 04:54:28;;;;;;;12.32;7.70;;;10.00;82.60;;;;;;10490802;28;20025;-65
2022/03/16 04:59:29;;;;;;;12.82;8.15;;;9.40;82.80;;;;;;10481705;28;20021;-66
2022/03/16 05:04:30;;;;;;;14.18;8.20;;;9.60;82.40;;;;;;10483967;28;20040;-66
2022/03/16 05:09:31;;;;;;;13.88;8.15;;;9.40;82.80;;;;;;10484149;28;20074;-63
2022/03/16 05:14:31;;;;;;;15.27;9.07;;;9.40;82.30;;;;;;10489934;28;20511;-62
2022/03/16 05:19:32;;;;;;;13.70;8.23;;;9.40;82.30;;;;;;10475247;28;20028;-66
2022/03/16 05:24:33;;;;;;;13.45;8.50;;;9.40;82.30;;;;;;10487537;28;20402;-66
2022/03/16 05:29:33;;;;;;;12.75;8.48;;;9.30;82.30;;;;;;10488341;28;20025;-64
2022/03/16 05:34:34;;;;;;;13.73;8.82;;;9.30;82.20;;;;;;10480226;28;20031;-66
2022/03/16 05:39:35;;;;;;;15.32;8.98;;;9.30;82.30;;;;;;10488639;28;20035;-65
2022/03/16 05:44:36;;;;;;;17.23;9.43;;;9.30;82.30;;;;;;10488214;28;20040;-65
2022/03/16 05:49:36;;;;;;;14.18;8.70;;;9.30;82.30;;;;;;10480206;28;20045;-65
2022/03/16 05:54:37;;;;;;;14.18;9.35;;;9.30;82.30;;;;;;10488007;28;20471;-66
2022/03/16 05:59:38;;;;;;;14.07;8.63;;;9.30;82.20;;;;;;10482272;28;20082;-66
2022/03/16 06:04:39;;;;;;;13.70;9.10;;;9.30;82.20;;;;;;10487121;28;20032;-67
2022/03/16 06:09:40;;;;;;;13.63;8.98;;;9.20;82.20;;;;;;10486418;28;20020;-65
2022/03/16 06:14:41;;;;;;;14.25;9.30;;;9.20;82.30;;;;;;10486180;28;20028;-61
2022/03/16 06:19:41;;;;;;;17.27;9.32;;;9.20;82.20;;;;;;10472739;28;20055;-61
2022/03/16 06:24:42;;;;;;;16.33;9.57;;;9.20;82.20;;;;;;10485630;28;20048;-67
2022/03/16 06:29:43;;;;;;;19.20;10.00;;;9.20;82.20;;;;;;10485442;28;20025;-67
2022/03/16 06:34:45;;;;;;;15.95;9.70;;;9.20;82.10;;;;;;10481083;28;20020;-67
2022/03/16 06:39:47;;;;;;;14.65;9.50;;;9.20;82.10;;;;;;10486429;28;20119;-66
2022/03/16 06:44:47;;;;;;;16.02;9.93;;;9.20;82.10;;;;;;10480757;28;20048;-67
2022/03/16 06:49:48;;;;;;;16.77;9.88;;;9.90;82.50;;;;;;10483614;28;20413;-65
2022/03/16 06:54:49;;;;;;;17.77;10.40;;;9.20;82.30;;;;;;10468934;28;20037;-63
2022/03/16 06:59:49;;;;;;;20.45;11.43;;;9.30;82.30;;;;;;10484572;28;20054;-62
2022/03/16 07:04:50;;;;;;;19.23;10.98;;;9.30;82.20;;;;;;10468827;28;20036;-65
2022/03/16 07:09:51;;;;;;;18.25;10.95;;;9.90;82.50;;;;;;10484819;28;20503;-69
2022/03/16 07:14:52;;;;;;;18.63;10.35;;;9.30;82.20;;;;;;10484306;28;20056;-71
2022/03/16 07:19:52;;;;;;;19.92;10.75;;;9.80;82.40;;;;;;10455600;28;20028;-68
2022/03/16 07:24:53;;;;;;;18.67;11.15;;;9.30;82.10;;;;;;10490097;28;20044;-70
2022/03/16 07:29:54;;;;;;;17.60;10.18;;;9.30;82.10;;;;;;10492019;28;20401;-68
2022/03/16 07:34:54;;;;;;;18.67;11.00;;;9.40;82.10;;;;;;10491544;28;20032;-68
2022/03/16 07:39:55;;;;;;;19.50;11.75;;;9.40;82.10;;;;;;10484262;28;20086;-64
2022/03/16 07:44:59;;;;;;;21.42;12.48;;;9.40;82.60;;;;;;10475600;28;20025;-69
2022/03/16 07:50:00;;;;;;;24.15;12.70;;;9.40;82.70;;;;;;10482886;28;20049;-68
2022/03/16 07:55:01;;;;;;;23.52;12.95;;;9.40;82.80;;;;;;10485408;28;21153;-67
2022/03/16 08:00:05;;;;;;;22.98;12.27;;;9.50;82.90;;;;;;10467934;28;20041;-70
2022/03/16 08:05:07;;;;;;;22.90;13.07;;;9.60;82.80;;;;;;10475284;28;20050;-70
2022/03/16 08:10:08;;;;;;;24.83;12.77;;;9.70;82.70;;;;;;10476027;28;20561;-65
2022/03/16 08:15:09;;;;;;;23.05;12.40;;;9.80;82.60;;;;;;10490132;28;20474;-67
2022/03/16 08:20:10;;;;;;;25.67;12.63;;;9.80;82.40;;;;;;10478235;28;20041;-63
2022/03/16 08:25:12;;;;;;;22.83;13.23;;;9.90;82.30;;;;;;10478747;28;20041;-66
2022/03/16 08:30:13;;;;;;;24.48;12.15;;;10.00;82.30;;;;;;10472384;28;20056;-66
2022/03/16 08:35:14;;;;;;;20.40;12.38;;;10.00;82.40;;;;;;10461156;28;20033;-63
2022/03/16 08:40:16;;;;;;;22.90;11.60;;;10.10;82.40;;;;;;10474230;28;20581;-67
2022/03/16 08:45:18;;;;;;;22.38;12.95;;;10.10;82.40;;;;;;10487294;28;20374;-65
2022/03/16 08:50:19;;;;;;;22.70;12.32;;;10.20;82.50;;;;;;10476316;28;20036;-68
2022/03/16 08:55:20;;;;;;;27.35;12.98;;;10.20;82.50;;;;;;10476099;28;20043;-69
2022/03/16 09:00:20;;;;;;;22.20;12.77;;;10.30;82.60;;;;;;10463689;28;20498;-68
2022/03/16 09:05:21;;;;;;;23.95;12.05;;;10.30;82.70;;;;;;10488342;28;20047;-68
2022/03/16 09:10:22;;;;;;;20.77;12.15;;;10.30;82.60;;;;;;10479436;28;20083;-68
2022/03/16 09:15:23;;;;;;;22.55;11.63;;;10.40;82.70;;;;;;10489145;28;20028;-67
2022/03/16 09:20:24;;;;;;;24.63;12.50;;;10.40;82.80;;;;;;10488264;28;20036;-66
2022/03/16 09:25:25;;;;;;;20.77;11.35;;;10.50;82.90;;;;;;10480714;28;20067;-64
2022/03/16 09:30:26;;;;;;;20.27;11.40;;;10.50;82.90;;;;;;10482460;28;20054;-60
2022/03/16 09:35:27;;;;;;;26.10;11.90;;;10.60;83.00;;;;;;10475853;28;20043;-59
2022/03/16 09:40:29;;;;;;;17.50;10.55;;;10.60;82.90;;;;;;10483623;28;20024;-65
2022/03/16 09:45:39;;;;;;;19.40;10.43;;;10.70;82.90;;;;;;10469364;28;20487;-66
2022/03/16 09:50:41;;;;;;;22.38;11.25;;;10.80;83.00;;;;;;10481821;28;20222;-68
2022/03/16 09:55:42;;;;;;;21.50;11.23;;;10.80;83.00;;;;;;10476092;28;20095;-65
2022/03/16 10:00:43;;;;;;;20.60;9.98;;;10.90;83.00;;;;;;10479348;28;20029;-62
2022/03/16 10:05:47;;;;;;;18.20;9.70;;;10.90;82.90;;;;;;10487130;28;20117;-68
2022/03/16 10:16:10;;;;;;;18.25;9.95;;;11.10;82.60;;;;;;10485516;28;20410;-67
2022/03/16 10:21:11;;;;;;;16.52;9.30;;;11.20;82.30;;;;;;10473520;28;20049;-66
2022/03/16 10:26:17;;;;;;;19.30;8.18;;;11.20;82.00;;;;;;10486116;28;20127;-69
2022/03/16 10:31:19;;;;;;;17.73;8.75;;;11.30;81.80;;;;;;10485680;28;20056;-69
2022/03/16 10:36:27;;;;;;;16.92;8.43;;;11.40;81.60;;;;;;10486394;28;20035;-63
2022/03/16 10:46:49;;;;;;;15.13;7.93;;;11.50;81.20;;;;;;10469298;28;20314;-68
2022/03/16 10:52:17;;;;;;;13.75;7.03;;;11.60;81.00;;;;;;10451473;28;20192;-69
2022/03/16 10:57:19;;;;;;;15.70;6.78;;;11.70;80.60;;;;;;10485279;28;20442;-64
2022/03/16 11:02:24;;;;;;;14.80;8.05;;;11.80;80.40;;;;;;10484417;28;20021;-65
2022/03/16 11:07:26;;;;;;;16.00;7.47;;;11.90;80.20;;;;;;10485669;28;20028;-64
2022/03/16 11:17:47;;;;;;;11.63;6.47;;;12.00;80.00;;;;;;10486046;28;20028;-66
2022/03/16 11:28:30;;;;;;;12.50;7.00;;;12.10;79.50;;;;;;10474679;28;20033;-68
2022/03/16 11:33:31;;;;;;;12.95;6.45;;;12.20;79.40;;;;;;10485338;28;20052;-67
2022/03/16 11:38:34;;;;;;;14.02;7.10;;;12.20;79.20;;;;;;10485718;28;20484;-68
2022/03/16 11:43:36;;;;;;;13.77;6.65;;;12.30;79.20;;;;;;10485165;28;20471;-66
2022/03/16 11:48:37;;;;;;;12.55;6.90;;;12.30;79.10;;;;;;10485499;28;20076;-67
2022/03/16 11:53:48;;;;;;;13.43;7.07;;;12.40;79.00;;;;;;10471299;28;20417;-67
2022/03/16 11:58:53;;;;;;;11.35;5.90;;;12.40;78.80;;;;;;10483784;28;20056;-66
2022/03/16 12:04:43;;;;;;;12.65;7.00;;;12.50;78.80;;;;;;10464567;28;20048;-66
2022/03/16 12:09:31;;;;;;;12.68;6.43;;;12.50;79.20;;;;;;10479755;28;20123;-67
2022/03/16 12:14:33;;;;;;;10.88;6.25;;;12.60;78.50;;;;;;10490927;28;20032;-65
2022/03/16 12:19:33;;;;;;;11.43;5.90;;;12.60;78.60;;;;;;10489986;28;20064;-65
2022/03/16 12:29:59;;;;;;;10.98;6.00;;;12.70;78.20;;;;;;10489584;28;20063;-64
2022/03/16 12:35:02;;;;;;;12.77;6.90;;;12.80;78.10;;;;;;10491431;28;20037;-65
2022/03/16 12:40:10;;;;;;;13.13;7.20;;;12.80;77.90;;;;;;10491444;28;20024;-66
2022/03/16 12:45:12;;;;;;;13.30;7.22;;;12.80;77.60;;;;;;10478151;28;20075;-65
2022/03/16 12:50:13;;;;;;;14.02;6.65;;;12.90;77.70;;;;;;10490522;28;20039;-62
2022/03/16 12:55:15;;;;;;;13.15;6.90;;;13.00;77.70;;;;;;10491024;28;20085;-64
2022/03/16 13:00:17;;;;;;;12.57;6.93;;;13.00;77.40;;;;;;10490369;28;20520;-65
2022/03/16 13:05:20;;;;;;;10.75;6.53;;;13.00;77.30;;;;;;10490209;28;20036;-68
2022/03/16 13:10:24;;;;;;;16.55;8.13;;;13.10;77.90;;;;;;10490167;28;20145;-66
2022/03/16 13:15:25;;;;;;;14.07;7.28;;;13.20;77.10;;;;;;10489758;28;20494;-66
2022/03/16 13:20:28;;;;;;;12.70;6.68;;;13.20;77.00;;;;;;10489582;28;20107;-66
2022/03/16 13:25:29;;;;;;;14.07;7.20;;;13.30;76.80;;;;;;10489590;28;20407;-66
2022/03/16 13:30:30;;;;;;;16.02;7.47;;;13.30;76.80;;;;;;10489012;28;20032;-65
2022/03/16 13:35:32;;;;;;;12.98;7.05;;;13.30;76.80;;;;;;10489310;28;20353;-67
2022/03/16 13:40:37;;;;;;;15.43;7.38;;;13.30;76.80;;;;;;10484492;28;20435;-67
2022/03/16 13:45:44;;;;;;;13.82;7.28;;;13.30;76.80;;;;;;10488125;28;20052;-65
2022/03/16 13:51:01;;;;;;;13.88;6.80;;;13.40;76.50;;;;;;10475014;28;20020;-65
2022/03/16 13:56:36;;;;;;;13.15;7.20;;;13.40;76.10;;;;;;10488074;28;20037;-66
2022/03/16 14:01:37;;;;;;;14.30;7.28;;;13.40;76.60;;;;;;10469704;28;20521;-64
2022/03/16 14:06:40;;;;;;;13.48;7.55;;;13.40;76.40;;;;;;10486945;28;20037;-64
2022/03/16 14:11:45;;;;;;;12.32;6.78;;;13.40;76.40;;;;;;10487640;28;20025;-67
2022/03/16 14:16:48;;;;;;;14.77;7.07;;;13.40;76.50;;;;;;10487655;28;20305;-67
2022/03/16 14:21:48;;;;;;;12.20;7.15;;;13.40;76.50;;;;;;10486448;28;20035;-67
2022/03/16 14:26:49;;;;;;;13.52;6.88;;;13.40;76.70;;;;;;10486530;28;20052;-67
2022/03/16 14:31:50;;;;;;;13.05;6.63;;;13.40;76.70;;;;;;10485071;28;20036;-63
2022/03/16 14:36:52;;;;;;;14.70;7.28;;;13.40;76.80;;;;;;10485815;28;20066;-64
2022/03/16 14:41:54;;;;;;;14.50;7.20;;;13.40;76.80;;;;;;10485011;28;20029;-61
2022/03/16 14:46:55;;;;;;;16.48;8.00;;;13.40;76.80;;;;;;10471741;28;20067;-66
2022/03/16 14:51:56;;;;;;;14.68;7.15;;;13.40;76.70;;;;;;10485378;28;20502;-66
2022/03/16 14:56:57;;;;;;;13.45;7.15;;;13.40;76.70;;;;;;10485184;28;20028;-67
2022/03/16 15:01:57;;;;;;;14.52;7.43;;;13.40;76.70;;;;;;10484521;28;20044;-66
2022/03/16 15:06:59;;;;;;;14.60;7.13;;;13.40;76.60;;;;;;10484327;28;20044;-66
2022/03/16 15:12:00;;;;;;;13.65;7.35;;;13.40;76.70;;;;;;10485200;28;20025;-66
2022/03/16 15:17:00;;;;;;;14.80;7.65;;;13.40;76.90;;;;;;10484769;28;20037;-68
2022/03/16 15:22:01;;;;;;;14.77;7.57;;;13.40;77.00;;;;;;10470172;28;20023;-67
2022/03/16 15:27:03;;;;;;;14.48;7.75;;;13.40;77.10;;;;;;10485359;28;20064;-66
2022/03/16 15:32:08;;;;;;;17.80;8.52;;;13.30;77.00;;;;;;10483727;28;20399;-66
2022/03/16 15:37:09;;;;;;;18.05;8.68;;;13.30;77.10;;;;;;10485624;28;20032;-65
2022/03/16 15:47:29;;;;;;;18.75;8.63;;;13.30;77.20;;;;;;10491908;28;20086;-67
2022/03/16 15:52:29;;;;;;;18.02;8.73;;;13.30;77.20;;;;;;10493138;28;20089;-66
2022/03/16 15:57:30;;;;;;;17.95;8.60;;;13.30;77.30;;;;;;10492918;28;20028;-67
2022/03/16 16:02:31;;;;;;;19.83;9.27;;;13.30;77.50;;;;;;10492159;28;20521;-68
2022/03/16 16:07:33;;;;;;;17.83;9.32;;;13.20;77.40;;;;;;10491674;28;20473;-67
2022/03/16 16:12:34;;;;;;;17.48;9.15;;;13.20;77.60;;;;;;10492678;28;20032;-61
2022/03/16 16:17:35;;;;;;;18.15;8.40;;;13.20;77.70;;;;;;10492174;28;20093;-65
2022/03/16 16:22:36;;;;;;;16.92;8.75;;;13.10;77.70;;;;;;10490255;28;20078;-67
2022/03/16 16:27:37;;;;;;;18.50;9.63;;;13.10;77.90;;;;;;10486826;28;20119;-62
2022/03/16 16:32:37;;;;;;;18.67;8.93;;;13.10;77.90;;;;;;10462726;28;20029;-62
2022/03/16 16:37:38;;;;;;;21.58;9.65;;;13.10;78.00;;;;;;10478073;28;20029;-65
2022/03/16 16:47:58;;;;;;;18.45;8.95;;;13.00;78.00;;;;;;10475440;28;20079;-67
2022/03/16 16:52:59;;;;;;;14.95;8.45;;;13.10;78.20;;;;;;10484711;28;20064;-68
2022/03/16 16:58:01;;;;;;;17.63;9.20;;;13.00;78.30;;;;;;10457812;28;20370;-65
2022/03/16 17:03:02;;;;;;;17.63;8.65;;;13.00;78.40;;;;;;10474932;28;20430;-66
2022/03/16 17:08:05;;;;;;;18.05;9.90;;;13.00;78.30;;;;;;10476459;28;20071;-67
2022/03/16 17:13:06;;;;;;;18.42;9.35;;;12.90;78.20;;;;;;10488663;28;20031;-67
2022/03/16 17:18:09;;;;;;;18.73;9.35;;;12.90;78.40;;;;;;10488004;28;20061;-63
2022/03/16 17:23:10;;;;;;;20.48;10.43;;;12.90;78.50;;;;;;10474539;28;20044;-63
2022/03/16 17:28:13;;;;;;;22.98;10.85;;;12.90;78.50;;;;;;10488197;28;20091;-62
2022/03/16 17:33:15;;;;;;;21.02;10.25;;;12.90;78.50;;;;;;10487580;28;20076;-67
2022/03/16 17:38:18;;;;;;;21.25;10.05;;;12.80;78.40;;;;;;10488402;28;20028;-66
2022/03/16 17:48:39;;;;;;;20.95;10.75;;;12.80;78.30;;;;;;10479266;28;20102;-64
2022/03/16 17:53:40;;;;;;;20.38;9.73;;;12.80;78.30;;;;;;10487720;28;20020;-64
2022/03/16 17:58:41;;;;;;;22.77;11.13;;;12.80;78.20;;;;;;10487592;28;20120;-64
2022/03/16 18:03:44;;;;;;;20.55;10.00;;;12.70;78.20;;;;;;10487449;28;20105;-62
2022/03/16 18:08:46;;;;;;;21.48;10.82;;;12.70;78.10;;;;;;10485760;28;20709;-68
2022/03/16 18:13:47;;;;;;;20.10;9.98;;;12.70;78.00;;;;;;10487008;28;20403;-63
2022/03/16 18:18:48;;;;;;;20.52;10.48;;;12.70;78.00;;;;;;10473039;28;20029;-67
2022/03/16 18:23:50;;;;;;;21.05;10.20;;;12.70;78.00;;;;;;10485176;28;20123;-66
2022/03/16 18:28:50;;;;;;;20.30;10.50;;;12.70;77.90;;;;;;10485728;28;20028;-63
2022/03/16 18:33:51;;;;;;;19.08;9.65;;;12.60;77.80;;;;;;10485579;28;20359;-66
2022/03/16 18:38:54;;;;;;;21.45;10.82;;;12.60;77.80;;;;;;10486173;28;20036;-63
2022/03/16 18:43:55;;;;;;;21.98;10.05;;;12.60;77.70;;;;;;10485580;28;20044;-63
2022/03/16 18:48:57;;;;;;;17.20;8.80;;;12.60;77.80;;;;;;10485514;28;20052;-67
2022/03/16 18:53:58;;;;;;;20.35;9.82;;;12.60;77.80;;;;;;10484889;28;20037;-67
2022/03/16 18:58:59;;;;;;;17.55;9.05;;;12.60;77.90;;;;;;10484775;28;20652;-67
2022/03/16 19:04:00;;;;;;;21.70;9.27;;;12.60;77.90;;;;;;10484787;28;20032;-66
2022/03/16 19:09:01;;;;;;;21.85;10.27;;;12.60;77.90;;;;;;10484837;28;20035;-63
2022/03/16 19:14:02;;;;;;;17.98;9.50;;;12.50;77.80;;;;;;10485040;28;20036;-62
2022/03/16 19:19:03;;;;;;;21.13;10.40;;;12.50;77.90;;;;;;10487988;28;20097;-66
2022/03/16 19:24:03;;;;;;;16.92;9.40;;;12.50;78.00;;;;;;10492763;28;20037;-66
2022/03/16 19:29:04;;;;;;;16.85;9.00;;;12.40;78.10;;;;;;10492757;28;20029;-66
2022/03/16 19:34:09;;;;;;;20.70;9.88;;;12.50;78.10;;;;;;10492752;28;20036;-64
2022/03/16 19:39:10;;;;;;;18.77;9.05;;;12.40;78.10;;;;;;10493826;28;20048;-66
2022/03/16 19:44:11;;;;;;;18.83;9.57;;;12.30;78.10;;;;;;10452790;28;20531;-60
2022/03/16 19:49:13;;;;;;;21.48;10.02;;;12.40;78.20;;;;;;10481537;28;20037;-63
2022/03/16 19:54:13;;;;;;;19.52;10.13;;;12.40;78.10;;;;;;10458495;28;20116;-65
2022/03/16 19:59:14;;;;;;;17.15;9.48;;;12.40;78.10;;;;;;10484829;28;20124;-64
2022/03/16 20:04:19;;;;;;;17.20;9.30;;;12.40;78.80;;;;;;10471263;28;20086;-64
2022/03/16 20:09:21;;;;;;;19.42;10.02;;;12.40;78.20;;;;;;10451693;28;20027;-66
2022/03/16 20:14:23;;;;;;;20.40;10.75;;;12.40;78.30;;;;;;10470842;28;20017;-65
2022/03/16 20:19:24;;;;;;;18.23;9.45;;;12.40;78.40;;;;;;10482384;28;20020;-64
2022/03/16 20:24:26;;;;;;;19.67;10.52;;;12.40;78.50;;;;;;10484797;28;20032;-65
2022/03/16 20:29:26;;;;;;;23.10;10.75;;;12.30;78.50;;;;;;10483565;28;20123;-66
2022/03/16 20:34:27;;;;;;;22.80;10.18;;;12.30;78.50;;;;;;10485248;28;20333;-65
2022/03/16 20:39:28;;;;;;;21.55;10.23;;;12.30;78.60;;;;;;10484524;28;20482;-66
2022/03/16 20:44:29;;;;;;;16.20;8.65;;;12.30;78.80;;;;;;10483409;28;20483;-66
2022/03/16 20:49:29;;;;;;;20.63;10.15;;;12.30;78.80;;;;;;10474593;28;20049;-66
2022/03/16 20:54:30;;;;;;;19.75;9.95;;;12.30;78.80;;;;;;10479498;28;20021;-66
2022/03/16 21:04:52;;;;;;;19.80;10.32;;;12.20;78.90;;;;;;10477833;28;20031;-67
2022/03/16 21:09:53;;;;;;;21.33;10.63;;;12.30;79.10;;;;;;10473489;28;20029;-67
2022/03/16 21:14:54;;;;;;;22.02;10.57;;;12.30;79.10;;;;;;10474973;28;20348;-62
2022/03/16 21:19:55;;;;;;;19.45;10.02;;;12.30;79.20;;;;;;10471017;28;20108;-67
2022/03/16 21:24:56;;;;;;;20.50;10.70;;;12.20;79.20;;;;;;10462945;28;20142;-63
2022/03/16 21:29:57;;;;;;;19.48;10.25;;;12.20;79.20;;;;;;10478290;28;20467;-67
2022/03/16 21:34:57;;;;;;;21.67;10.90;;;12.20;79.30;;;;;;10480713;28;20029;-61
2022/03/16 21:45:28;;;;;;;21.17;10.95;;;12.20;79.50;;;;;;10478273;28;20147;-67
2022/03/16 21:50:34;;;;;;;24.08;11.30;;;12.20;79.50;;;;;;10467992;28;20136;-62
2022/03/16 21:55:35;;;;;;;20.63;10.70;;;12.20;79.60;;;;;;10457519;28;20071;-64
2022/03/16 22:00:36;;;;;;;20.20;10.50;;;12.20;79.70;;;;;;10478932;28;20020;-67
2022/03/16 22:05:38;;;;;;;21.13;10.13;;;12.20;79.70;;;;;;10480231;28;20024;-64
2022/03/16 22:10:40;;;;;;;22.48;11.30;;;12.20;79.80;;;;;;10478283;28;20025;-62
2022/03/16 22:15:41;;;;;;;22.90;11.20;;;12.10;80.50;;;;;;10472358;28;20441;-66
2022/03/16 22:26:02;;;;;;;21.88;11.27;;;12.10;80.00;;;;;;10471399;28;20542;-63
2022/03/16 22:31:02;;;;;;;22.27;10.80;;;12.10;80.10;;;;;;10473632;28;20531;-65
2022/03/16 22:36:06;;;;;;;23.58;10.57;;;12.10;80.10;;;;;;10485185;28;20032;-67
2022/03/16 22:41:07;;;;;;;20.52;10.20;;;12.10;80.20;;;;;;10484798;28;20028;-62
2022/03/16 22:46:08;;;;;;;21.02;10.43;;;12.10;80.30;;;;;;10482894;28;20067;-66
2022/03/16 22:51:09;;;;;;;23.48;11.85;;;12.10;80.40;;;;;;10484124;28;20077;-68
2022/03/16 22:56:10;;;;;;;21.63;11.40;;;12.10;80.40;;;;;;10483695;28;20043;-68
2022/03/16 23:01:12;;;;;;;18.17;10.32;;;12.10;80.40;;;;;;10460450;28;20025;-60
2022/03/16 23:06:13;;;;;;;24.23;11.60;;;12.10;80.50;;;;;;10484458;28;20044;-63
2022/03/16 23:11:13;;;;;;;23.55;12.38;;;12.00;80.50;;;;;;10484398;28;20024;-67
2022/03/16 23:16:14;;;;;;;20.25;10.48;;;12.10;80.60;;;;;;10485746;28;20036;-66
2022/03/16 23:21:15;;;;;;;21.15;11.38;;;12.10;80.60;;;;;;10481781;28;20144;-66
2022/03/16 23:26:16;;;;;;;21.58;10.82;;;12.00;80.60;;;;;;10483716;28;20040;-68
2022/03/16 23:31:16;;;;;;;22.13;10.98;;;12.10;80.70;;;;;;10474664;28;20040;-62
2022/03/16 23:36:20;;;;;;;23.58;11.93;;;12.00;80.70;;;;;;10484796;28;20068;-67
2022/03/16 23:41:21;;;;;;;20.67;10.07;;;12.10;80.70;;;;;;10485186;28;20482;-61
2022/03/16 23:46:22;;;;;;;21.98;10.95;;;12.00;80.70;;;;;;10484669;28;20460;-63
2022/03/16 23:51:23;;;;;;;21.45;11.00;;;12.00;81.40;;;;;;10485534;28;20091;-66
2022/03/16 23:56:23;;;;;;;21.80;10.85;;;12.10;80.80;;;;;;10464298;28;20127;-67
